Time;durP1;ratioP1;P1;durP2;ratioP2;P2;SDS_P1;SDS_P2;PMS_P1;PMS_P2;Temp;Humidity;BMP_temperature;BMP_pressure;BME280_temperature;BME280_humidity;BME280_pressure;Samples;Min_cycle;Max_cycle;Signal;HPM_P1;HPM_P2
2021/08/21 00:00:55;;;;;;;8.70;6.90;;;10.70;99.90;;;;;;5009795;28;20766;-81
2021/08/21 00:03:21;;;;;;;12.05;8.23;;;10.80;99.90;;;;;;5002398;28;20030;-81
2021/08/21 00:05:46;;;;;;;9.18;7.80;;;10.80;99.90;;;;;;5021131;28;20156;-81
2021/08/21 00:08:12;;;;;;;10.32;7.68;;;10.80;99.90;;;;;;5029577;28;20486;-82
2021/08/21 00:10:37;;;;;;;9.65;6.38;;;10.90;99.90;;;;;;5016365;28;20098;-81
2021/08/21 00:13:03;;;;;;;11.50;7.25;;;11.00;99.90;;;;;;5026929;28;20021;-82
2021/08/21 00:15:29;;;;;;;9.68;7.55;;;11.00;99.90;;;;;;5030490;28;20088;-82
2021/08/21 00:17:55;;;;;;;8.38;6.65;;;11.10;99.90;;;;;;5020529;28;20025;-82
2021/08/21 00:20:20;;;;;;;9.95;7.28;;;11.10;99.90;;;;;;5012850;28;20065;-82
2021/08/21 00:22:46;;;;;;;7.88;7.00;;;11.10;99.90;;;;;;5016524;28;20474;-82
2021/08/21 00:25:12;;;;;;;7.55;6.68;;;11.20;99.90;;;;;;4994273;28;20068;-82
2021/08/21 00:27:39;;;;;;;10.32;7.03;;;11.20;99.90;;;;;;5005396;28;20091;-81
2021/08/21 00:30:05;;;;;;;11.57;8.70;;;11.20;99.90;;;;;;5018558;28;20125;-81
2021/08/21 00:32:31;;;;;;;14.15;7.45;;;11.20;99.90;;;;;;4996654;28;20752;-82
2021/08/21 00:34:57;;;;;;;12.77;6.93;;;11.20;99.90;;;;;;5027915;28;20104;-81
2021/08/21 00:37:23;;;;;;;6.72;6.00;;;11.20;99.90;;;;;;5010508;28;20031;-81
2021/08/21 00:39:48;;;;;;;7.15;6.10;;;11.20;99.90;;;;;;5002229;28;20021;-82
2021/08/21 00:42:14;;;;;;;8.25;6.65;;;11.20;99.90;;;;;;5021539;28;20053;-81
2021/08/21 00:44:40;;;;;;;11.18;6.50;;;11.20;99.90;;;;;;4993679;28;20034;-81
2021/08/21 00:47:10;;;;;;;9.05;7.45;;;11.10;99.90;;;;;;5003946;28;20030;-81
2021/08/21 00:49:37;;;;;;;10.52;9.07;;;11.20;99.90;;;;;;5021384;28;20021;-81
2021/08/21 00:52:04;;;;;;;10.77;7.47;;;11.20;99.90;;;;;;5012442;28;20533;-82
2021/08/21 00:54:30;;;;;;;9.32;7.07;;;11.30;99.90;;;;;;5012906;28;20084;-81
2021/08/21 00:57:06;;;;;;;10.10;6.75;;;11.30;99.90;;;;;;5013681;28;20030;-81
2021/08/21 00:59:36;;;;;;;7.70;6.68;;;11.30;99.90;;;;;;4995653;28;20485;-81
2021/08/21 01:02:03;;;;;;;10.82;6.90;;;11.20;99.90;;;;;;4996341;28;20032;-81
2021/08/21 01:04:34;;;;;;;6.88;5.95;;;11.20;99.90;;;;;;4995921;28;20032;-81
2021/08/21 01:07:01;;;;;;;6.13;5.53;;;11.30;99.90;;;;;;4996204;28;20497;-81
2021/08/21 01:09:26;;;;;;;9.35;6.75;;;11.30;99.90;;;;;;5013751;28;20033;-81
2021/08/21 01:11:52;;;;;;;6.70;5.78;;;11.40;99.90;;;;;;4996007;28;20022;-81
2021/08/21 01:14:18;;;;;;;15.00;6.60;;;11.40;99.90;;;;;;5012745;28;20113;-81
2021/08/21 01:16:44;;;;;;;6.80;5.75;;;11.50;99.90;;;;;;4996173;28;20026;-81
2021/08/21 01:19:12;;;;;;;9.30;6.25;;;11.50;99.90;;;;;;5013673;28;20406;-81
2021/08/21 01:21:38;;;;;;;11.98;6.30;;;11.50;99.90;;;;;;5013466;28;20029;-81
2021/08/21 01:24:05;;;;;;;10.43;7.00;;;11.60;99.90;;;;;;4995662;28;20038;-81
2021/08/21 01:26:32;;;;;;;6.95;5.80;;;11.60;99.90;;;;;;5013514;28;20375;-82
2021/08/21 01:28:57;;;;;;;10.73;6.55;;;11.60;99.90;;;;;;5013442;28;20026;-81
2021/08/21 01:31:23;;;;;;;10.68;8.15;;;11.60;99.90;;;;;;4995885;28;20076;-81
2021/08/21 01:33:48;;;;;;;9.82;7.05;;;11.70;99.90;;;;;;4995713;28;20108;-82
2021/08/21 01:36:14;;;;;;;9.32;7.18;;;11.70;99.90;;;;;;5057715;22;20045;-78
2021/08/21 01:38:58;;;;;;;12.13;7.10;;;11.70;99.90;;;;;;5036431;28;20030;-78
2021/08/21 01:41:24;;;;;;;8.48;6.65;;;11.60;99.90;;;;;;5032977;28;20105;-79
2021/08/21 01:43:50;;;;;;;9.20;6.97;;;11.60;99.90;;;;;;5031407;28;20489;-78
2021/08/21 01:46:15;;;;;;;9.43;6.97;;;11.60;99.90;;;;;;5039316;28;20508;-79
2021/08/21 01:48:41;;;;;;;9.63;6.45;;;11.50;99.90;;;;;;5052657;28;20493;-78
2021/08/21 01:51:06;;;;;;;8.70;6.65;;;11.60;99.90;;;;;;5052732;28;20025;-79
2021/08/21 01:53:32;;;;;;;9.50;6.30;;;11.50;99.90;;;;;;5034809;28;20052;-79
2021/08/21 01:55:57;;;;;;;8.80;6.55;;;11.50;99.90;;;;;;5052398;28;20028;-79
2021/08/21 01:58:23;;;;;;;10.65;7.35;;;11.50;99.90;;;;;;5034725;28;20024;-79
2021/08/21 02:00:49;;;;;;;10.73;6.95;;;11.50;99.90;;;;;;5052487;28;20039;-79
2021/08/21 02:03:17;;;;;;;13.50;7.25;;;11.50;99.90;;;;;;5034645;28;20028;-78
2021/08/21 02:05:43;;;;;;;7.65;6.43;;;11.50;99.90;;;;;;5052152;28;20071;-79
2021/08/21 02:08:08;;;;;;;12.45;6.57;;;11.50;99.90;;;;;;5052340;28;20041;-79
2021/08/21 02:10:34;;;;;;;11.32;6.20;;;11.50;99.90;;;;;;5052354;28;20061;-79
2021/08/21 02:13:00;;;;;;;7.63;5.88;;;11.50;99.90;;;;;;5052324;28;20399;-78
2021/08/21 02:15:25;;;;;;;10.13;7.20;;;11.50;99.90;;;;;;5034100;28;20025;-79
2021/08/21 02:17:51;;;;;;;8.43;6.68;;;11.50;99.90;;;;;;5034247;28;20040;-79
2021/08/21 02:20:17;;;;;;;10.68;6.75;;;11.50;99.90;;;;;;5034367;28;20013;-79
2021/08/21 02:22:44;;;;;;;10.52;6.75;;;11.50;99.90;;;;;;5034300;28;20502;-78
2021/08/21 02:25:12;;;;;;;7.75;6.65;;;11.50;99.90;;;;;;5051948;28;20024;-79
2021/08/21 02:27:42;;;;;;;9.68;6.50;;;11.40;99.90;;;;;;5057587;28;20056;-79
2021/08/21 02:30:08;;;;;;;9.07;7.05;;;11.50;99.90;;;;;;5057740;28;20444;-79
2021/08/21 02:32:34;;;;;;;9.63;7.40;;;11.50;99.90;;;;;;5034119;28;20020;-79
2021/08/21 02:35:00;;;;;;;10.30;7.07;;;11.50;99.90;;;;;;5057910;28;20020;-79
2021/08/21 02:37:26;;;;;;;10.65;7.15;;;11.50;99.90;;;;;;5053845;28;20032;-78
2021/08/21 02:39:52;;;;;;;9.23;7.15;;;11.50;99.90;;;;;;5071938;28;20062;-79
2021/08/21 02:42:18;;;;;;;7.68;6.47;;;11.60;99.90;;;;;;5071714;28;20463;-79
2021/08/21 02:44:43;;;;;;;12.35;6.70;;;11.60;99.90;;;;;;5071695;28;20099;-79
2021/08/21 02:47:09;;;;;;;11.25;7.28;;;11.70;99.90;;;;;;5071840;28;20020;-79
2021/08/21 02:49:35;;;;;;;13.63;6.72;;;11.70;99.90;;;;;;5071744;28;20554;-79
2021/08/21 02:52:01;;;;;;;9.25;7.00;;;11.70;99.90;;;;;;5053901;28;20435;-78
2021/08/21 02:54:27;;;;;;;13.75;6.78;;;11.70;99.90;;;;;;5071588;28;20103;-78
2021/08/21 02:56:52;;;;;;;16.20;7.60;;;11.60;99.90;;;;;;5071470;28;20104;-79
2021/08/21 02:59:18;;;;;;;8.45;6.53;;;11.60;99.90;;;;;;5071822;28;20388;-78
2021/08/21 03:01:44;;;;;;;11.50;7.03;;;11.50;99.90;;;;;;5071702;28;20025;-79
2021/08/21 03:04:09;;;;;;;12.32;8.43;;;11.50;99.90;;;;;;5053533;28;20028;-78
2021/08/21 03:06:35;;;;;;;14.25;8.07;;;11.40;99.90;;;;;;5053616;28;20028;-78
2021/08/21 03:09:01;;;;;;;12.90;8.10;;;11.30;99.90;;;;;;5071665;28;20037;-78
2021/08/21 03:11:26;;;;;;;9.45;7.40;;;11.20;99.90;;;;;;5053534;28;20020;-78
2021/08/21 03:13:52;;;;;;;8.05;7.07;;;11.10;99.90;;;;;;5053713;28;20040;-78
2021/08/21 03:16:17;;;;;;;8.10;7.20;;;11.10;99.90;;;;;;5071280;28;20029;-79
2021/08/21 03:18:43;;;;;;;9.00;7.13;;;11.10;99.90;;;;;;5053604;28;20036;-79
2021/08/21 03:21:08;;;;;;;10.65;7.78;;;11.10;99.90;;;;;;5053599;28;20024;-78
2021/08/21 03:23:34;;;;;;;14.73;8.13;;;11.20;99.90;;;;;;5071519;28;20401;-78
2021/08/21 03:26:00;;;;;;;8.68;6.68;;;11.20;99.90;;;;;;5071299;28;20024;-79
2021/08/21 03:28:26;;;;;;;10.50;7.38;;;11.20;99.90;;;;;;5071423;28;20118;-78
2021/08/21 03:30:51;;;;;;;9.75;7.95;;;11.20;99.90;;;;;;5071291;28;20028;-79
2021/08/21 03:33:17;;;;;;;11.15;8.85;;;11.30;99.90;;;;;;5053480;28;20016;-79
2021/08/21 03:35:43;;;;;;;13.90;8.02;;;11.30;99.90;;;;;;5070942;28;20044;-79
2021/08/21 03:38:09;;;;;;;11.85;8.80;;;11.40;99.90;;;;;;5054949;28;20066;-79
2021/08/21 03:40:35;;;;;;;9.25;8.00;;;11.40;99.90;;;;;;5075145;28;20032;-78
2021/08/21 03:43:00;;;;;;;12.57;9.13;;;11.40;99.90;;;;;;5075165;28;20086;-79
2021/08/21 03:45:26;;;;;;;10.73;7.72;;;11.50;99.90;;;;;;5074878;28;20111;-78
2021/08/21 03:47:51;;;;;;;16.52;9.43;;;11.50;99.90;;;;;;5056966;28;20438;-78
2021/08/21 03:50:17;;;;;;;10.68;8.50;;;11.50;99.90;;;;;;5075026;28;20032;-79
2021/08/21 03:52:43;;;;;;;13.05;9.38;;;11.50;99.90;;;;;;5075052;28;20349;-78
2021/08/21 03:55:09;;;;;;;15.27;9.40;;;11.60;99.90;;;;;;5056814;28;20021;-79
2021/08/21 03:57:35;;;;;;;15.77;11.27;;;11.60;99.90;;;;;;5056856;28;20047;-78
2021/08/21 04:00:02;;;;;;;19.77;12.10;;;11.60;99.90;;;;;;5074808;28;20553;-79
2021/08/21 04:02:27;;;;;;;24.15;12.65;;;11.70;99.90;;;;;;5075102;28;20028;-78
2021/08/21 04:04:53;;;;;;;17.00;11.70;;;11.70;99.90;;;;;;5056654;28;20111;-78
2021/08/21 04:07:18;;;;;;;18.83;11.90;;;11.80;99.90;;;;;;5074732;28;20028;-79
2021/08/21 04:09:44;;;;;;;19.63;10.05;;;11.80;99.90;;;;;;5056743;28;20024;-79
2021/08/21 04:12:10;;;;;;;14.65;10.07;;;11.80;99.90;;;;;;5074626;28;20539;-78
2021/08/21 04:14:36;;;;;;;16.55;11.57;;;11.80;99.90;;;;;;5056524;28;20048;-79
2021/08/21 04:17:02;;;;;;;20.13;10.80;;;11.90;99.90;;;;;;5056760;28;20050;-79
2021/08/21 04:19:27;;;;;;;14.02;8.98;;;11.90;99.90;;;;;;5074619;28;20032;-78
2021/08/21 04:21:53;;;;;;;11.43;9.45;;;11.90;99.90;;;;;;5075798;28;20037;-79
2021/08/21 04:24:18;;;;;;;9.82;7.93;;;12.00;99.90;;;;;;5056342;28;20027;-79
2021/08/21 04:26:44;;;;;;;10.02;8.68;;;12.00;99.90;;;;;;5056373;28;20028;-78
2021/08/21 04:29:10;;;;;;;27.80;10.90;;;12.00;99.90;;;;;;5056396;28;20017;-79
2021/08/21 04:31:36;;;;;;;12.55;9.63;;;12.10;99.90;;;;;;5056564;28;20036;-78
2021/08/21 04:34:02;;;;;;;15.10;10.73;;;12.10;99.90;;;;;;5074078;28;20028;-79
2021/08/21 04:36:27;;;;;;;11.95;9.10;;;12.10;99.90;;;;;;5052790;28;20082;-79
2021/08/21 04:38:53;;;;;;;11.73;9.15;;;12.20;99.90;;;;;;5052915;28;20025;-78
2021/08/21 04:41:19;;;;;;;12.48;9.63;;;12.20;99.90;;;;;;5054244;28;20083;-78
2021/08/21 04:43:44;;;;;;;12.30;9.43;;;12.20;99.90;;;;;;5053739;28;20037;-78
2021/08/21 04:46:11;;;;;;;11.02;8.45;;;12.30;99.90;;;;;;5053998;28;20025;-79
2021/08/21 04:48:36;;;;;;;11.35;8.32;;;12.40;99.90;;;;;;5052424;28;20163;-79
2021/08/21 04:51:02;;;;;;;13.07;9.70;;;12.40;99.90;;;;;;5051819;28;20074;-79
2021/08/21 04:53:27;;;;;;;14.40;9.00;;;12.40;99.90;;;;;;5053911;28;20582;-78
2021/08/21 04:55:53;;;;;;;14.63;9.20;;;12.50;99.90;;;;;;5053505;28;20071;-79
2021/08/21 04:58:18;;;;;;;13.02;8.95;;;12.50;99.90;;;;;;5052371;28;20508;-79
2021/08/21 05:00:44;;;;;;;16.88;10.15;;;12.70;99.90;;;;;;5053831;28;20064;-79
2021/08/21 05:03:09;;;;;;;12.43;9.65;;;12.60;99.90;;;;;;5053865;28;20017;-78
2021/08/21 05:05:36;;;;;;;15.75;10.32;;;12.60;99.90;;;;;;5052371;28;20520;-79
2021/08/21 05:08:02;;;;;;;20.23;10.30;;;12.70;99.90;;;;;;5052272;28;20033;-79
2021/08/21 05:10:27;;;;;;;14.98;10.77;;;12.80;99.90;;;;;;5053684;28;20128;-78
2021/08/21 05:12:53;;;;;;;17.50;10.65;;;12.80;99.90;;;;;;5052174;28;20071;-78
2021/08/21 05:15:18;;;;;;;12.32;9.75;;;12.90;99.90;;;;;;5052118;28;20021;-78
2021/08/21 05:17:45;;;;;;;12.50;8.85;;;13.00;99.90;;;;;;5053406;28;20025;-79
2021/08/21 05:20:17;;;;;;;13.60;9.60;;;13.00;99.90;;;;;;5052135;28;20029;-79
2021/08/21 05:25:12;;;;;;;14.85;10.32;;;13.10;99.90;;;;;;5053002;28;20025;-79
2021/08/21 05:27:37;;;;;;;11.43;8.88;;;13.20;99.90;;;;;;5053153;28;20496;-78
2021/08/21 05:30:04;;;;;;;11.55;8.43;;;13.30;99.90;;;;;;5062431;28;20033;-79
2021/08/21 05:32:31;;;;;;;8.70;7.50;;;13.30;99.90;;;;;;5055671;28;20025;-79
2021/08/21 05:34:56;;;;;;;14.75;10.75;;;13.40;99.90;;;;;;5058679;28;20016;-79
2021/08/21 05:37:22;;;;;;;13.85;8.82;;;13.50;99.90;;;;;;5072894;28;20433;-79
2021/08/21 05:39:47;;;;;;;10.93;9.02;;;13.50;99.90;;;;;;5055088;28;20025;-78
2021/08/21 05:42:13;;;;;;;16.50;10.70;;;13.50;99.90;;;;;;5073051;28;20037;-79
2021/08/21 05:44:38;;;;;;;13.18;8.50;;;13.60;99.90;;;;;;5072948;28;20025;-79
2021/08/21 05:47:04;;;;;;;10.85;8.85;;;13.70;99.90;;;;;;5072861;28;20488;-79
2021/08/21 05:49:29;;;;;;;14.80;11.77;;;13.70;99.90;;;;;;5054799;28;20504;-79
2021/08/21 05:51:55;;;;;;;10.57;9.27;;;13.70;99.90;;;;;;5054935;28;20046;-79
2021/08/21 05:54:21;;;;;;;12.60;8.48;;;13.80;99.90;;;;;;5054578;28;20512;-78
2021/08/21 05:56:46;;;;;;;11.95;8.73;;;13.90;99.90;;;;;;5054612;28;20554;-79
2021/08/21 05:59:12;;;;;;;13.40;9.43;;;13.90;99.90;;;;;;5072923;28;20062;-79
2021/08/21 06:01:38;;;;;;;13.55;10.23;;;14.00;99.90;;;;;;5052266;28;20036;-79
2021/08/21 06:04:05;;;;;;;11.82;9.02;;;14.10;99.90;;;;;;5072119;28;20024;-79
2021/08/21 06:06:33;;;;;;;19.27;9.63;;;14.20;99.90;;;;;;5072149;28;20028;-79
2021/08/21 06:08:59;;;;;;;12.23;8.10;;;14.20;99.90;;;;;;5072024;28;20388;-79
2021/08/21 06:11:24;;;;;;;12.00;9.13;;;14.30;99.90;;;;;;5072169;28;20021;-79
2021/08/21 06:13:50;;;;;;;12.48;9.07;;;14.20;99.90;;;;;;5053996;28;20048;-79
2021/08/21 06:16:16;;;;;;;8.02;7.20;;;14.30;99.90;;;;;;5072096;28;20425;-79
2021/08/21 06:18:41;;;;;;;9.68;7.43;;;14.40;99.90;;;;;;5072076;28;20032;-79
2021/08/21 06:21:07;;;;;;;9.40;6.95;;;14.60;99.90;;;;;;5054176;28;20115;-79
2021/08/21 06:23:32;;;;;;;14.15;9.13;;;14.70;99.90;;;;;;5054005;28;20035;-79
2021/08/21 06:25:58;;;;;;;10.48;7.45;;;14.60;99.90;;;;;;5071746;28;20074;-79
2021/08/21 06:28:24;;;;;;;8.95;7.85;;;14.60;99.90;;;;;;5071923;28;20035;-79
2021/08/21 06:30:49;;;;;;;10.50;7.65;;;14.60;99.90;;;;;;5054067;28;20024;-79
2021/08/21 06:33:15;;;;;;;11.52;8.07;;;14.70;99.90;;;;;;5054086;28;20024;-79
2021/08/21 06:35:40;;;;;;;8.38;7.47;;;14.80;99.90;;;;;;5071508;28;20059;-79
2021/08/21 06:38:06;;;;;;;9.63;7.40;;;14.90;99.90;;;;;;5053975;28;20032;-79
2021/08/21 06:40:31;;;;;;;10.98;6.85;;;15.00;99.90;;;;;;5053806;28;20588;-78
2021/08/21 06:42:57;;;;;;;9.88;8.25;;;15.20;99.90;;;;;;5054076;28;20504;-79
2021/08/21 06:45:22;;;;;;;10.60;7.50;;;15.00;99.90;;;;;;5071619;28;20396;-78
2021/08/21 06:47:48;;;;;;;10.77;6.72;;;15.00;99.90;;;;;;5071612;28;20044;-79
2021/08/21 06:50:13;;;;;;;7.63;5.97;;;15.00;99.90;;;;;;5071994;28;20033;-79
2021/08/21 06:52:39;;;;;;;11.68;5.32;;;14.90;99.90;;;;;;5071671;28;20120;-79
2021/08/21 06:55:05;;;;;;;8.60;5.43;;;14.90;99.90;;;;;;5071330;28;20447;-78
2021/08/21 06:57:31;;;;;;;12.07;6.75;;;15.00;99.90;;;;;;5043867;28;20537;-79
2021/08/21 06:59:57;;;;;;;9.73;5.95;;;15.00;99.90;;;;;;5059502;28;20025;-79
2021/08/21 07:02:24;;;;;;;7.88;6.35;;;14.90;99.90;;;;;;5067113;28;20546;-78
2021/08/21 07:04:49;;;;;;;9.80;6.78;;;14.90;99.90;;;;;;5064178;28;20035;-78
2021/08/21 07:07:15;;;;;;;7.45;5.38;;;14.90;99.90;;;;;;5067332;28;20028;-79
2021/08/21 07:09:40;;;;;;;6.68;5.50;;;14.90;99.90;;;;;;5067146;28;20078;-79
2021/08/21 07:12:06;;;;;;;8.82;6.75;;;15.00;99.90;;;;;;5067479;28;20021;-78
2021/08/21 07:14:32;;;;;;;7.45;5.22;;;15.10;99.90;;;;;;5069027;28;20025;-79
2021/08/21 07:16:57;;;;;;;8.27;5.93;;;15.30;99.90;;;;;;5071357;28;20031;-79
2021/08/21 07:19:23;;;;;;;5.45;4.95;;;15.10;99.90;;;;;;5071354;28;20028;-78
2021/08/21 07:21:53;;;;;;;7.03;5.05;;;15.20;99.90;;;;;;5053916;28;20020;-78
2021/08/21 07:24:19;;;;;;;5.15;4.20;;;15.30;99.90;;;;;;5058577;28;20032;-79
2021/08/21 07:26:44;;;;;;;8.70;4.75;;;15.30;99.90;;;;;;5060728;28;20115;-79
2021/08/21 07:29:10;;;;;;;7.05;6.35;;;15.40;99.90;;;;;;5053644;28;20170;-81
2021/08/21 07:31:36;;;;;;;5.93;5.32;;;15.30;99.90;;;;;;5071370;28;20025;-80
2021/08/21 07:34:01;;;;;;;6.43;5.68;;;15.30;99.90;;;;;;5058423;28;20115;-79
2021/08/21 07:36:27;;;;;;;6.18;4.38;;;15.30;99.90;;;;;;5067701;28;20039;-78
2021/08/21 07:38:52;;;;;;;6.15;4.57;;;15.60;99.90;;;;;;5054389;28;20037;-78
2021/08/21 07:41:18;;;;;;;7.57;5.75;;;15.50;99.90;;;;;;5071121;28;20035;-79
2021/08/21 07:43:44;;;;;;;7.70;4.90;;;15.50;99.90;;;;;;5070594;28;20032;-79
2021/08/21 07:46:09;;;;;;;6.75;4.78;;;15.60;99.90;;;;;;5070736;28;20035;-79
2021/08/21 07:48:35;;;;;;;7.97;5.78;;;15.70;99.90;;;;;;5062236;28;20131;-79
2021/08/21 07:51:01;;;;;;;5.57;3.78;;;15.80;99.90;;;;;;5048282;28;20083;-78
2021/08/21 07:53:26;;;;;;;3.65;3.20;;;15.90;99.90;;;;;;5068060;28;20028;-79
2021/08/21 07:55:52;;;;;;;4.50;3.85;;;16.00;99.90;;;;;;5070794;28;20025;-79
2021/08/21 07:58:17;;;;;;;8.68;3.97;;;16.20;99.90;;;;;;5057671;28;20025;-79
2021/08/21 08:00:43;;;;;;;6.72;4.00;;;16.40;99.90;;;;;;5074869;28;20059;-79
2021/08/21 08:03:12;;;;;;;6.10;4.18;;;16.60;99.90;;;;;;5056995;28;20128;-79
2021/08/21 08:05:38;;;;;;;6.38;3.45;;;16.70;99.90;;;;;;5056475;28;20078;-79
2021/08/21 08:08:04;;;;;;;5.38;3.33;;;16.90;99.90;;;;;;5056598;28;20031;-80
2021/08/21 08:10:30;;;;;;;7.15;4.38;;;17.20;99.90;;;;;;5056736;28;20103;-80
2021/08/21 08:12:55;;;;;;;5.57;3.25;;;17.20;99.90;;;;;;5074488;28;20553;-80
2021/08/21 08:15:21;;;;;;;4.88;3.75;;;17.30;99.90;;;;;;5056496;28;20400;-80
2021/08/21 08:17:46;;;;;;;7.05;3.95;;;17.50;99.90;;;;;;5074445;28;20024;-80
2021/08/21 08:20:12;;;;;;;6.50;3.30;;;17.70;99.90;;;;;;5074324;28;20036;-81
2021/08/21 08:22:38;;;;;;;5.18;3.83;;;17.90;99.90;;;;;;5056484;28;20024;-80
2021/08/21 08:25:05;;;;;;;12.77;3.70;;;18.00;99.90;;;;;;5073986;28;20040;-81
2021/08/21 08:27:30;;;;;;;8.30;4.20;;;18.10;99.90;;;;;;5056253;28;20028;-82
2021/08/21 08:29:56;;;;;;;3.55;2.83;;;18.40;99.90;;;;;;5056367;28;20036;-84
2021/08/21 08:32:21;;;;;;;6.30;2.15;;;18.70;99.90;;;;;;5069549;28;20036;-82
2021/08/21 08:34:47;;;;;;;4.55;1.75;;;18.60;99.90;;;;;;5040815;28;20032;-81
2021/08/21 08:37:13;;;;;;;4.05;1.63;;;18.40;99.90;;;;;;5056037;28;20033;-83
2021/08/21 08:39:40;;;;;;;5.07;1.98;;;18.60;99.90;;;;;;5074099;28;20024;-83
2021/08/21 08:42:08;;;;;;;1.85;1.20;;;18.70;99.90;;;;;;5056321;28;20150;-83
2021/08/21 08:44:34;;;;;;;3.30;1.50;;;18.90;99.90;;;;;;5055927;28;20107;-82
2021/08/21 08:47:00;;;;;;;3.90;1.38;;;19.20;99.90;;;;;;5055966;28;20089;-83
2021/08/21 08:49:27;;;;;;;7.38;1.73;;;19.30;99.90;;;;;;5073862;28;20082;-82
2021/08/21 08:51:53;;;;;;;2.60;1.42;;;19.40;99.90;;;;;;5073963;28;20028;-83
2021/08/21 08:54:20;;;;;;;4.00;1.60;;;19.70;99.90;;;;;;5073624;28;20505;-82
2021/08/21 08:56:46;;;;;;;3.42;1.70;;;19.50;99.90;;;;;;5055759;28;20024;-83
2021/08/21 08:59:11;;;;;;;4.75;1.42;;;19.40;99.90;;;;;;5055790;28;20082;-83
2021/08/21 09:01:40;;;;;;;1.80;1.13;;;19.40;99.90;;;;;;5055921;28;20032;-78
2021/08/21 09:04:21;;;;;;;3.60;1.33;;;19.40;99.90;;;;;;5073225;28;20028;-80
2021/08/21 09:06:47;;;;;;;5.45;1.45;;;19.60;99.90;;;;;;5073573;28;20025;-81
2021/08/21 09:09:16;;;;;;;2.20;0.77;;;19.90;99.90;;;;;;5055648;28;20078;-80
2021/08/21 09:11:49;;;;;;;4.13;1.48;;;20.20;99.90;;;;;;5073366;28;20086;-80
2021/08/21 09:14:18;;;;;;;3.22;1.30;;;20.20;99.90;;;;;;5073335;28;20028;-81
2021/08/21 09:16:44;;;;;;;2.33;1.40;;;20.60;99.90;;;;;;5050752;28;20040;-81
2021/08/21 09:19:09;;;;;;;5.18;1.23;;;20.50;99.90;;;;;;5054047;28;20035;-80
2021/08/21 09:21:35;;;;;;;0.88;0.88;;;20.40;99.90;;;;;;5064704;28;20136;-81
2021/08/21 09:24:20;;;;;;;2.40;1.40;;;20.60;99.90;;;;;;5057151;28;20029;-80
2021/08/21 09:26:46;;;;;;;2.25;1.23;;;20.90;99.90;;;;;;5068731;28;20032;-80
2021/08/21 09:29:23;;;;;;;2.22;1.00;;;21.10;99.90;;;;;;5068724;28;20032;-80
2021/08/21 09:31:49;;;;;;;3.55;1.20;;;21.40;99.90;;;;;;5069547;28;20369;-80
2021/08/21 09:34:18;;;;;;;2.47;1.13;;;21.70;99.90;;;;;;5060572;28;20028;-80
2021/08/21 09:36:45;;;;;;;3.65;1.20;;;21.30;99.90;;;;;;5058249;28;20485;-80
2021/08/21 09:39:15;;;;;;;2.60;1.23;;;21.30;99.90;;;;;;5053133;28;20043;-80
2021/08/21 09:41:56;;;;;;;3.42;1.30;;;21.00;99.90;;;;;;5068881;28;20028;-80
2021/08/21 09:44:33;;;;;;;3.33;1.20;;;20.70;99.90;;;;;;5060547;28;20497;-80
2021/08/21 09:47:26;;;;;;;2.72;1.20;;;20.90;99.90;;;;;;5059460;28;20040;-80
2021/08/21 09:50:10;;;;;;;2.83;1.50;;;21.50;99.90;;;;;;5062633;28;20033;-81
2021/08/21 09:52:36;;;;;;;5.03;1.35;;;21.70;99.90;;;;;;5052879;28;20374;-80
2021/08/21 09:55:07;;;;;;;3.67;1.25;;;22.00;99.90;;;;;;5064168;28;20033;-80
2021/08/21 09:57:33;;;;;;;3.30;1.38;;;21.70;99.90;;;;;;5064065;28;20013;-81
2021/08/21 10:00:00;;;;;;;2.15;1.13;;;21.60;99.90;;;;;;5068446;28;20504;-80
2021/08/21 10:02:29;;;;;;;1.10;1.00;;;21.60;99.90;;;;;;5064112;28;20037;-80
2021/08/21 10:04:55;;;;;;;2.83;1.13;;;21.50;99.90;;;;;;5061018;28;20021;-80
2021/08/21 10:07:25;;;;;;;5.13;1.05;;;21.90;99.90;;;;;;5059274;28;20027;-80
2021/08/21 10:09:53;;;;;;;2.03;0.90;;;21.80;99.90;;;;;;5059393;28;20029;-81
2021/08/21 10:12:21;;;;;;;3.47;1.10;;;22.40;99.90;;;;;;5046405;28;20027;-80
2021/08/21 10:14:49;;;;;;;1.63;0.90;;;22.10;99.90;;;;;;5067332;28;20016;-80
2021/08/21 10:17:16;;;;;;;1.65;1.20;;;22.30;99.90;;;;;;5051573;28;20017;-80
2021/08/21 10:19:42;;;;;;;2.80;1.10;;;22.20;99.90;;;;;;5068872;28;20032;-79
2021/08/21 10:22:09;;;;;;;4.05;1.10;;;22.10;99.90;;;;;;5052359;28;20393;-80
2021/08/21 10:24:37;;;;;;;1.23;0.80;;;22.10;99.90;;;;;;5068569;28;20028;-80
2021/08/21 10:27:19;;;;;;;4.47;1.20;;;21.80;99.90;;;;;;5068863;28;20056;-80
2021/08/21 10:30:20;;;;;;;1.88;0.82;;;22.20;99.90;;;;;;5069204;28;20032;-81
2021/08/21 10:33:01;;;;;;;2.50;1.17;;;22.80;99.90;;;;;;5060519;28;20028;-80
2021/08/21 10:35:48;;;;;;;2.42;1.00;;;22.60;99.90;;;;;;5068636;28;20020;-80
2021/08/21 10:38:28;;;;;;;3.10;1.20;;;22.20;99.90;;;;;;5065267;28;20229;-80
2021/08/21 10:40:55;;;;;;;4.28;1.10;;;21.50;99.90;;;;;;5069074;28;20511;-80
2021/08/21 10:43:44;;;;;;;4.38;1.10;;;21.40;99.90;;;;;;5068834;28;20085;-81
2021/08/21 10:46:11;;;;;;;4.95;1.17;;;21.50;99.90;;;;;;5062024;28;20170;-81
2021/08/21 10:48:37;;;;;;;0.65;0.65;;;21.30;99.90;;;;;;5067610;28;20500;-82
2021/08/21 10:51:32;;;;;;;2.88;1.15;;;21.50;99.90;;;;;;5058406;28;20085;-82
2021/08/21 10:53:59;;;;;;;4.70;0.90;;;21.40;99.90;;;;;;5068347;28;20383;-80
2021/08/21 10:56:35;;;;;;;2.55;1.02;;;21.10;99.90;;;;;;5065486;28;21311;-79
2021/08/21 10:59:02;;;;;;;1.15;0.73;;;21.40;99.90;;;;;;5063725;28;20082;-81
2021/08/21 11:01:28;;;;;;;3.63;1.20;;;21.40;99.90;;;;;;5054802;28;20098;-80
2021/08/21 11:03:53;;;;;;;2.03;1.15;;;21.30;99.90;;;;;;5068112;28;20434;-80
2021/08/21 11:06:31;;;;;;;1.10;0.70;;;21.60;99.90;;;;;;5061639;28;20032;-80
2021/08/21 11:09:03;;;;;;;4.97;1.20;;;21.80;99.90;;;;;;5070140;28;20027;-80
2021/08/21 11:14:08;;;;;;;3.55;1.02;;;22.30;99.90;;;;;;5071229;28;20032;-82
2021/08/21 11:16:51;;;;;;;2.83;1.23;;;22.30;99.90;;;;;;5069825;28;20561;-80
2021/08/21 11:19:25;;;;;;;4.85;1.38;;;22.40;99.90;;;;;;5069964;28;20028;-80
2021/08/21 11:22:10;;;;;;;15.15;1.25;;;22.30;99.90;;;;;;5071475;28;20067;-79
2021/08/21 11:24:57;;;;;;;4.13;1.13;;;22.60;99.90;;;;;;5071347;28;20025;-80
2021/08/21 11:27:26;;;;;;;1.65;1.05;;;22.80;99.90;;;;;;5071471;28;20488;-80
2021/08/21 11:30:10;;;;;;;4.13;1.20;;;23.50;99.90;;;;;;5069714;28;20029;-80
2021/08/21 11:32:50;;;;;;;4.45;1.40;;;23.40;99.90;;;;;;5069608;28;20025;-81
2021/08/21 11:35:25;;;;;;;5.20;1.05;;;23.30;99.90;;;;;;5059979;28;20056;-78
2021/08/21 11:37:53;;;;;;;6.80;1.40;;;23.30;99.90;;;;;;5051274;28;20029;-79
2021/08/21 11:40:22;;;;;;;11.98;1.17;;;23.20;99.90;;;;;;5050692;28;20045;-78
2021/08/21 11:42:54;;;;;;;7.15;1.33;;;23.30;99.90;;;;;;5031784;28;20166;-79
2021/08/21 11:45:20;;;;;;;2.45;0.93;;;24.00;99.90;;;;;;5039788;28;20028;-79
2021/08/21 11:47:46;;;;;;;1.63;1.02;;;24.00;99.90;;;;;;5053169;28;20082;-79
2021/08/21 11:50:42;;;;;;;4.38;1.00;;;24.70;99.90;;;;;;5053173;28;20033;-79
2021/08/21 11:53:09;;;;;;;6.88;1.10;;;25.60;99.90;;;;;;5051226;28;20028;-79
2021/08/21 11:55:36;;;;;;;2.40;1.00;;;25.10;99.90;;;;;;5070613;28;20017;-78
2021/08/21 11:58:04;;;;;;;1.45;0.85;;;24.40;99.90;;;;;;5053172;28;20121;-80
2021/08/21 12:00:33;;;;;;;1.33;0.73;;;23.70;99.90;;;;;;5074228;28;20025;-78
2021/08/21 12:03:03;;;;;;;1.63;0.90;;;23.30;99.90;;;;;;5074345;28;20028;-78
2021/08/21 12:05:39;;;;;;;3.70;1.15;;;22.80;99.90;;;;;;5056237;28;20025;-79
2021/08/21 12:08:13;;;;;;;2.55;0.90;;;23.20;99.90;;;;;;5056757;28;20108;-78
2021/08/21 12:10:49;;;;;;;1.88;1.00;;;23.40;99.90;;;;;;5056737;28;20021;-79
2021/08/21 12:13:18;;;;;;;6.20;0.90;;;23.80;99.90;;;;;;5056753;28;20020;-78
2021/08/21 12:15:46;;;;;;;4.13;1.15;;;24.20;99.90;;;;;;5073956;28;20025;-78
2021/08/21 12:18:12;;;;;;;2.75;1.17;;;24.70;99.90;;;;;;5074292;28;20029;-78
2021/08/21 12:20:39;;;;;;;6.95;1.33;;;25.40;99.90;;;;;;5074517;28;20025;-78
2021/08/21 12:23:07;;;;;;;1.17;0.90;;;25.50;99.90;;;;;;5056434;28;20028;-79
2021/08/21 12:25:52;;;;;;;3.85;0.80;;;25.80;99.90;;;;;;5074186;28;20070;-78
2021/08/21 12:28:20;;;;;;;5.72;1.50;;;26.10;99.90;;;;;;5074062;28;20021;-78
2021/08/21 12:30:58;;;;;;;2.35;0.90;;;26.90;99.90;;;;;;5074180;28;20020;-79
2021/08/21 12:33:32;;;;;;;19.67;1.15;;;26.70;99.90;;;;;;5074150;28;20013;-78
2021/08/21 12:36:27;;;;;;;3.58;1.45;;;27.50;99.90;;;;;;5059293;28;20041;-78
2021/08/21 12:39:06;;;;;;;4.72;1.25;;;27.90;99.90;;;;;;5032990;28;20043;-78
2021/08/21 12:41:53;;;;;;;1.25;0.73;;;28.50;99.90;;;;;;5036292;28;20045;-78
2021/08/21 12:44:35;;;;;;;1.75;1.20;;;28.70;99.90;;;;;;5053261;28;20041;-78
2021/08/21 12:47:04;;;;;;;1.77;0.82;;;29.50;99.90;;;;;;5053406;28;20021;-79
2021/08/21 12:49:38;;;;;;;1.15;0.60;;;29.60;99.90;;;;;;5053906;28;20113;-78
2021/08/21 12:52:06;;;;;;;15.00;1.27;;;28.80;99.90;;;;;;5052581;28;20021;-78